Time;durP1;ratioP1;P1;durP2;ratioP2;P2;SDS_P1;SDS_P2;PMS_P1;PMS_P2;Temp;Humidity;BMP_temperature;BMP_pressure;BME280_temperature;BME280_humidity;BME280_pressure;Samples;Min_cycle;Max_cycle;Signal;HPM_P1;HPM_P2
2023/08/03 00:01:31;;;;;;;4.60;2.60;;;;;;;28.10;97.11;99860.55;108857;1257;59057;-90
2023/08/03 00:04:19;;;;;;;6.50;2.70;;;;;;;28.13;97.58;99863.67;108926;1256;67270;-89
2023/08/03 00:07:08;;;;;;;4.50;3.00;;;;;;;28.19;96.97;99867.79;108822;1257;60029;-89
2023/08/03 00:09:56;;;;;;;7.40;2.70;;;;;;;28.14;97.13;99872.97;108829;1257;66271;-89
2023/08/03 00:12:45;;;;;;;5.00;2.80;;;;;;;28.02;96.86;99875.86;108805;1256;59480;-89
2023/08/03 00:15:33;;;;;;;5.70;3.10;;;;;;;27.81;97.70;99879.75;108827;1255;59852;-89
2023/08/03 00:18:21;;;;;;;7.20;2.70;;;;;;;27.80;97.73;99879.68;108927;1257;67078;-90
2023/08/03 00:21:10;;;;;;;8.50;3.10;;;;;;;27.75;97.27;99879.71;108889;1256;62002;-88
2023/08/03 00:23:58;;;;;;;5.10;2.80;;;;;;;27.70;97.05;99878.45;108840;1256;66426;-88
2023/08/03 00:26:46;;;;;;;4.70;2.50;;;;;;;27.65;97.73;99878.39;108747;1260;59170;-89
2023/08/03 00:29:35;;;;;;;5.80;2.70;;;;;;;27.65;97.92;99877.20;108713;1256;59629;-89
2023/08/03 00:32:23;;;;;;;3.70;2.60;;;;;;;27.69;97.33;99878.84;108838;1256;64533;-89
2023/08/03 00:35:12;;;;;;;3.30;2.50;;;;;;;27.76;96.10;99878.24;108855;1255;70057;-88
2023/08/03 00:38:00;;;;;;;4.70;2.60;;;;;;;27.74;95.86;99873.92;108724;1257;65813;-89
2023/08/03 00:40:52;;;;;;;6.70;2.70;;;;;;;27.58;96.65;99871.54;108718;1257;59388;-89
2023/08/03 00:43:41;;;;;;;4.80;2.80;;;;;;;27.44;97.33;99870.80;108854;1257;59229;-89
2023/08/03 00:46:29;;;;;;;6.10;2.70;;;;;;;27.38;97.76;99876.37;108810;1257;67983;-89
2023/08/03 00:49:18;;;;;;;3.50;2.40;;;;;;;27.36;98.06;99881.90;108827;1257;65462;-88
2023/08/03 00:52:06;;;;;;;5.10;2.10;;;;;;;27.33;98.54;99882.73;108819;1257;66193;-88
2023/08/03 00:54:55;;;;;;;5.00;2.40;;;;;;;27.33;98.52;99882.17;108884;1256;59882;-89
2023/08/03 00:57:43;;;;;;;3.40;2.40;;;;;;;27.35;98.18;99882.95;108827;1256;59932;-88
2023/08/03 01:00:32;;;;;;;2.80;2.00;;;;;;;27.35;97.68;99887.12;108826;1257;65786;-88
2023/08/03 01:03:20;;;;;;;3.70;2.10;;;;;;;27.35;96.97;99893.14;108915;1257;61646;-89
2023/08/03 01:06:09;;;;;;;5.50;2.60;;;;;;;27.27;97.15;99891.89;108974;1257;66036;-89
2023/08/03 01:08:59;;;;;;;4.00;2.50;;;;;;;27.16;97.33;99893.98;108759;1256;59321;-89
2023/08/03 01:11:47;;;;;;;7.20;3.60;;;;;;;27.07;98.03;99896.17;108788;1257;60687;-89
2023/08/03 01:14:36;;;;;;;4.70;2.90;;;;;;;27.07;97.92;99900.66;108820;1256;68003;-88
2023/08/03 01:17:25;;;;;;;5.10;2.80;;;;;;;27.11;97.50;99904.09;108893;1257;62093;-90
2023/08/03 01:20:13;;;;;;;4.80;2.60;;;;;;;27.11;97.25;99905.45;108753;1256;62610;-90
2023/08/03 01:23:04;;;;;;;7.20;2.70;;;;;;;27.17;96.53;99907.77;108752;1257;60167;-90
2023/08/03 01:25:53;;;;;;;5.30;2.60;;;;;;;27.21;95.71;99905.20;108848;1257;59068;-88
2023/08/03 01:28:41;;;;;;;4.00;2.60;;;;;;;27.14;96.02;99907.13;108826;1257;68762;-88
2023/08/03 01:31:30;;;;;;;4.70;2.60;;;;;;;27.05;96.46;99907.14;108761;1257;70672;-89
2023/08/03 01:34:19;;;;;;;4.00;2.80;;;;;;;27.01;96.83;99905.40;108547;1256;234249;-88
2023/08/03 01:37:07;;;;;;;4.20;2.40;;;;;;;26.99;96.67;99903.56;108722;1256;59764;-88
2023/08/03 01:39:56;;;;;;;6.60;2.80;;;;;;;26.93;96.26;99907.09;108819;1256;59603;-90
2023/08/03 01:42:44;;;;;;;5.30;2.60;;;;;;;26.80;96.12;99906.80;108841;1255;67988;-89
2023/08/03 01:45:33;;;;;;;3.90;2.60;;;;;;;26.74;96.49;99911.61;108841;1256;61794;-90
2023/08/03 01:48:22;;;;;;;5.60;2.50;;;;;;;26.74;96.38;99917.94;108758;1256;66240;-90
2023/08/03 01:51:10;;;;;;;8.20;2.30;;;;;;;26.69;96.66;99927.01;108822;1255;59664;-90
2023/08/03 01:53:59;;;;;;;5.00;3.00;;;;;;;26.67;96.73;99933.23;108936;1257;59063;-89
2023/08/03 01:56:47;;;;;;;3.80;2.10;;;;;;;26.65;97.17;99934.69;108931;1255;68296;-89
2023/08/03 01:59:35;;;;;;;5.80;2.40;;;;;;;26.67;96.69;99933.25;108858;1256;59111;-90
2023/08/03 02:02:24;;;;;;;7.00;2.10;;;;;;;26.64;96.12;99933.73;108724;1257;65631;-90
2023/08/03 02:05:13;;;;;;;4.90;2.10;;;;;;;26.60;96.09;99939.42;108771;1256;59804;-91
2023/08/03 02:08:01;;;;;;;6.80;2.30;;;;;;;26.62;95.88;99944.45;108909;1255;59651;-90
2023/08/03 02:10:50;;;;;;;6.30;2.30;;;;;;;26.55;96.60;99943.58;108908;1255;64504;-90
2023/08/03 02:13:38;;;;;;;5.00;1.90;;;;;;;26.50;96.89;99944.83;108906;1256;59207;-90
2023/08/03 02:16:26;;;;;;;5.30;2.10;;;;;;;26.42;97.28;99953.47;108851;1256;65713;-90
2023/08/03 02:19:15;;;;;;;6.60;2.30;;;;;;;26.26;98.36;99957.13;108872;1255;59072;-89
2023/08/03 02:22:03;;;;;;;7.20;2.10;;;;;;;26.27;98.40;99954.58;108866;1255;59395;-90
2023/08/03 02:24:51;;;;;;;6.30;2.30;;;;;;;26.26;98.25;99958.64;108791;1256;67404;-89
2023/08/03 02:27:41;;;;;;;2.50;2.00;;;;;;;26.26;97.84;99959.61;108890;1257;59088;-88
2023/08/03 02:30:30;;;;;;;4.50;2.00;;;;;;;26.30;97.17;99963.63;108896;1255;65433;-90
2023/08/03 02:33:19;;;;;;;4.30;2.00;;;;;;;26.28;96.69;99969.52;108820;1255;59211;-89
2023/08/03 02:36:07;;;;;;;4.60;2.30;;;;;;;26.29;96.43;99972.91;108834;1256;59099;-90
2023/08/03 02:38:56;;;;;;;5.40;1.80;;;;;;;26.23;96.98;99980.10;108856;1255;68270;-90
2023/08/03 02:41:44;;;;;;;5.50;1.90;;;;;;;26.17;97.35;99984.48;108776;1255;59216;-90
2023/08/03 02:44:34;;;;;;;3.20;2.10;;;;;;;26.11;97.92;99981.11;108861;1256;65345;-89
2023/08/03 02:47:23;;;;;;;5.80;2.00;;;;;;;26.19;98.14;99975.04;108817;1256;59522;-89
2023/08/03 02:50:13;;;;;;;7.60;2.80;;;;;;;26.28;98.77;99970.98;108871;1256;59837;-90
2023/08/03 02:53:01;;;;;;;5.30;2.40;;;;;;;26.36;98.99;99967.95;108894;1256;68549;-89
2023/08/03 02:55:50;;;;;;;4.00;2.50;;;;;;;26.41;99.41;99966.84;108715;1255;61954;-90
2023/08/03 02:58:40;;;;;;;6.50;2.60;;;;;;;26.49;99.24;99963.58;108801;1255;65124;-90
2023/08/03 03:01:31;;;;;;;4.40;2.30;;;;;;;26.50;99.82;99968.05;108754;1256;59248;-88
2023/08/03 03:04:20;;;;;;;5.30;2.80;;;;;;;26.55;100.00;99969.52;108806;1257;59223;-90
2023/08/03 03:07:09;;;;;;;5.90;2.50;;;;;;;26.63;100.00;99972.80;108854;1257;66862;-90
2023/08/03 03:09:58;;;;;;;3.80;2.40;;;;;;;26.76;100.00;99976.33;108845;1255;61987;-89
2023/08/03 03:12:46;;;;;;;5.00;2.30;;;;;;;26.97;100.00;99978.95;108758;1256;66163;-89
2023/08/03 03:15:35;;;;;;;4.80;2.50;;;;;;;26.96;100.00;99982.70;108822;1255;59789;-88
2023/08/03 03:18:24;;;;;;;5.80;2.50;;;;;;;27.09;100.00;99982.38;108885;1255;59660;-86
2023/08/03 03:21:12;;;;;;;9.60;3.10;;;;;;;27.24;100.00;99983.48;108809;1255;68133;-87
2023/08/03 03:24:01;;;;;;;7.20;3.30;;;;;;;27.38;100.00;99979.92;108813;1258;62280;-89
2023/08/03 03:26:49;;;;;;;6.90;4.00;;;;;;;27.48;100.00;99980.69;108689;1256;72904;-90
2023/08/03 03:29:39;;;;;;;6.00;3.50;;;;;;;27.59;100.00;99984.73;108796;1255;59119;-90
2023/08/03 03:32:28;;;;;;;8.70;3.90;;;;;;;27.75;100.00;99988.70;108666;1256;59294;-85
2023/08/03 03:35:23;;;;;;;8.70;3.90;;;;;;;27.87;100.00;99997.48;108718;1255;67667;-87
2023/08/03 03:38:12;;;;;;;5.40;3.80;;;;;;;28.01;100.00;100003.03;108739;1256;61929;-88
2023/08/03 03:41:01;;;;;;;6.20;4.10;;;;;;;28.11;100.00;99998.47;108695;1255;66875;-88
2023/08/03 03:43:50;;;;;;;6.10;4.60;;;;;;;28.21;100.00;99998.82;108790;1255;59697;-87
2023/08/03 03:46:39;;;;;;;7.20;4.30;;;;;;;28.32;100.00;100001.80;108776;1255;59740;-87
2023/08/03 03:49:27;;;;;;;8.10;4.40;;;;;;;28.46;100.00;99997.80;108735;1256;67286;-88
2023/08/03 03:52:15;;;;;;;6.40;4.60;;;;;;;28.56;100.00;100000.30;108897;1255;59855;-88
2023/08/03 03:55:04;;;;;;;7.70;5.20;;;;;;;28.60;100.00;100006.85;108822;1256;66128;-85
2023/08/03 03:57:53;;;;;;;7.90;4.60;;;;;;;28.72;100.00;100007.95;108750;1256;59263;-87
2023/08/03 04:00:41;;;;;;;6.70;4.60;;;;;;;28.78;100.00;100010.17;108810;1255;59846;-86
2023/08/03 04:03:30;;;;;;;9.50;5.00;;;;;;;28.80;100.00;100014.16;108855;1255;64918;-85
2023/08/03 04:06:23;;;;;;;8.00;5.60;;;;;;;28.79;100.00;100019.71;108816;1255;61579;-86
2023/08/03 04:09:11;;;;;;;8.00;5.80;;;;;;;28.76;100.00;100022.86;108874;1255;65235;-85
2023/08/03 04:12:00;;;;;;;10.20;6.50;;;;;;;28.80;100.00;100024.36;108856;1257;59772;-87
2023/08/03 04:14:48;;;;;;;6.90;5.70;;;;;;;28.85;100.00;100028.49;108845;1255;59249;-87
2023/08/03 04:17:38;;;;;;;8.70;6.20;;;;;;;28.92;100.00;100028.27;108908;1255;64439;-88
2023/08/03 04:20:29;;;;;;;9.50;7.00;;;;;;;28.98;100.00;100032.96;108824;1255;59124;-88
2023/08/03 04:23:18;;;;;;;8.70;6.80;;;;;;;29.02;100.00;100029.96;108810;1255;65961;-86
2023/08/03 04:26:07;;;;;;;8.20;6.50;;;;;;;29.11;100.00;100033.27;108837;1255;59159;-86
2023/08/03 04:28:56;;;;;;;11.60;7.60;;;;;;;29.04;100.00;100033.64;108878;1256;59069;-87
2023/08/03 04:31:46;;;;;;;11.50;7.80;;;;;;;29.07;100.00;100036.52;108814;1255;66813;-86
2023/08/03 04:34:35;;;;;;;10.40;7.60;;;;;;;29.05;100.00;100033.80;108869;1255;72836;-87
2023/08/03 04:37:28;;;;;;;11.30;7.70;;;;;;;29.09;100.00;100035.30;108878;1255;64958;-88
2023/08/03 04:40:16;;;;;;;12.50;7.80;;;;;;;29.03;100.00;100038.95;108841;1255;59773;-88
2023/08/03 04:43:05;;;;;;;13.60;8.10;;;;;;;29.05;100.00;100044.17;108823;1258;59904;-87
2023/08/03 04:45:53;;;;;;;12.60;7.50;;;;;;;29.21;100.00;100040.02;108865;1256;67099;-86
2023/08/03 04:48:42;;;;;;;11.50;7.80;;;;;;;29.24;100.00;100040.55;108863;1258;61095;-87
2023/08/03 04:51:31;;;;;;;12.10;8.80;;;;;;;29.14;99.98;100044.26;108899;1256;63686;-87
2023/08/03 04:54:20;;;;;;;13.20;7.90;;;;;;;29.08;100.00;100045.42;108818;1255;59530;-88
2023/08/03 04:57:08;;;;;;;12.00;7.90;;;;;;;29.07;100.00;100047.05;108911;1255;59406;-88
2023/08/03 05:00:00;;;;;;;12.20;8.30;;;;;;;29.05;100.00;100049.55;108848;1255;67153;-87
2023/08/03 05:02:48;;;;;;;12.30;8.60;;;;;;;29.09;100.00;100046.71;108807;1255;69054;-85
2023/08/03 05:05:37;;;;;;;11.30;7.60;;;;;;;29.15;100.00;100048.35;108854;1256;66088;-86
2023/08/03 05:08:25;;;;;;;12.60;8.40;;;;;;;29.26;99.95;100053.08;108953;1255;59210;-87
2023/08/03 05:11:14;;;;;;;12.70;7.60;;;;;;;29.33;99.29;100054.30;108861;1256;59042;-87
2023/08/03 05:14:02;;;;;;;13.80;7.20;;;;;;;29.50;97.03;100056.83;108848;1257;68342;-88
2023/08/03 05:16:51;;;;;;;12.40;7.80;;;;;;;29.58;96.30;100060.54;108854;1255;59671;-86
2023/08/03 05:19:40;;;;;;;12.20;8.10;;;;;;;29.67;96.06;100065.37;108881;1255;66174;-86
2023/08/03 05:22:28;;;;;;;13.60;7.70;;;;;;;29.79;95.95;100067.89;108943;1256;59061;-86
2023/08/03 05:25:16;;;;;;;12.60;7.70;;;;;;;29.89;95.86;100063.27;108878;1255;59127;-88
2023/08/03 05:28:05;;;;;;;12.00;8.70;;;;;;;29.70;97.80;100063.34;108832;1256;75575;-88
2023/08/03 05:30:53;;;;;;;12.40;8.20;;;;;;;29.72;98.22;100065.88;108863;1255;61341;-87
2023/08/03 05:33:41;;;;;;;10.50;7.90;;;;;;;29.71;98.52;100067.99;108866;1255;63713;-86
2023/08/03 05:36:30;;;;;;;9.80;8.00;;;;;;;29.79;99.12;100073.37;108811;1255;59645;-86
2023/08/03 05:39:18;;;;;;;12.70;8.10;;;;;;;29.93;98.48;100076.17;108909;1255;59664;-86
2023/08/03 05:42:08;;;;;;;12.20;8.20;;;;;;;29.99;97.66;100076.27;108852;1255;66006;-88
2023/08/03 05:44:56;;;;;;;13.60;9.10;;;;;;;30.01;96.90;100075.19;108713;1256;61969;-87
2023/08/03 05:47:45;;;;;;;13.80;7.70;;;;;;;30.05;96.75;100073.85;108758;1255;65836;-90
2023/08/03 05:50:33;;;;;;;11.40;8.10;;;;;;;30.17;96.33;100073.38;108644;1257;59718;-89
2023/08/03 05:53:21;;;;;;;11.70;8.00;;;;;;;30.26;96.18;100079.32;108894;1255;59379;-88
2023/08/03 05:56:12;;;;;;;10.90;8.20;;;;;;;30.26;95.53;100085.02;108708;1255;66706;-88
2023/08/03 05:59:00;;;;;;;13.00;8.80;;;;;;;30.31;94.85;100093.59;108874;1255;61987;-88
2023/08/03 06:01:51;;;;;;;12.70;8.60;;;;;;;30.26;95.04;100099.13;108684;1256;66888;-89
2023/08/03 06:04:43;;;;;;;13.40;9.00;;;;;;;30.36;94.50;100101.41;108797;1255;59575;-90
2023/08/03 06:07:41;;;;;;;12.70;8.60;;;;;;;30.34;94.39;100109.49;108962;1256;59499;-89
2023/08/03 06:10:30;;;;;;;12.30;8.50;;;;;;;30.27;94.28;100115.05;108779;1256;67798;-89
2023/08/03 06:13:29;;;;;;;11.40;8.50;;;;;;;30.28;92.92;100115.05;108867;1255;59118;-90
2023/08/03 06:16:19;;;;;;;12.00;8.10;;;;;;;30.26;92.61;100117.08;108729;1257;66019;-89
2023/08/03 06:19:11;;;;;;;14.30;8.50;;;;;;;30.20;93.89;100117.70;108835;1255;59558;-91
2023/08/03 06:22:17;;;;;;;17.70;9.40;;;;;;;30.20;94.13;100120.36;108857;1256;59571;-89
2023/08/03 06:25:09;;;;;;;16.60;8.30;;;;;;;30.10;94.42;100122.33;108734;1255;66288;-91
2023/08/03 06:27:58;;;;;;;12.00;8.40;;;;;;;30.07;95.22;100122.94;108702;1257;62916;-90
2023/08/03 06:30:50;;;;;;;12.40;8.20;;;;;;;30.13;95.11;100122.70;108746;1255;63944;-91
2023/08/03 06:33:43;;;;;;;11.90;9.10;;;;;;;30.16;94.96;100125.23;108849;1255;59414;-87
2023/08/03 06:36:41;;;;;;;13.20;8.70;;;;;;;30.24;93.76;100128.45;108824;1255;59213;-90
2023/08/03 06:39:33;;;;;;;14.10;8.80;;;;;;;30.38;92.81;100130.14;108802;1258;66754;-89
2023/08/03 06:42:26;;;;;;;11.90;9.10;;;;;;;30.47;92.31;100134.77;108869;1255;61631;-89
2023/08/03 06:45:21;;;;;;;12.60;8.60;;;;;;;30.47;92.33;100143.96;108781;1255;73118;-91
2023/08/03 06:48:15;;;;;;;11.60;8.70;;;;;;;30.47;92.55;100145.64;108778;1255;59167;-90
2023/08/03 06:51:03;;;;;;;11.10;7.80;;;;;;;30.65;92.22;100140.96;108686;1255;59390;-89
2023/08/03 06:54:04;;;;;;;11.50;8.30;;;;;;;30.86;91.33;100143.90;108732;1256;66626;-90
2023/08/03 06:56:57;;;;;;;10.70;7.40;;;;;;;31.12;90.00;100141.09;108747;1255;59840;-89
2023/08/03 06:59:47;;;;;;;11.50;7.60;;;;;;;31.34;88.98;100135.89;108686;1257;71332;-89
2023/08/03 07:02:36;;;;;;;11.40;7.80;;;;;;;31.52;87.31;100135.45;108783;1255;59432;-89
2023/08/03 07:05:24;;;;;;;8.90;7.60;;;;;;;31.75;85.48;100135.91;108738;1257;59041;-89
2023/08/03 07:08:13;;;;;;;13.00;7.80;;;;;;;31.91;83.71;100131.26;108803;1255;66254;-92
2023/08/03 07:11:05;;;;;;;8.30;6.90;;;;;;;32.03;83.37;100137.81;108647;1257;60012;-91
2023/08/03 07:13:57;;;;;;;9.60;7.10;;;;;;;32.27;84.09;100134.89;108857;1255;64285;-91
2023/08/03 07:16:45;;;;;;;13.00;8.00;;;;;;;32.67;84.29;100129.69;108800;1255;59291;-89
2023/08/03 07:19:34;;;;;;;10.90;8.20;;;;;;;33.05;81.05;100130.92;108827;1255;59301;-89
2023/08/03 07:22:24;;;;;;;11.20;7.80;;;;;;;33.12;74.85;100130.76;108801;1257;65885;-87
2023/08/03 07:25:12;;;;;;;10.30;7.30;;;;;;;33.13;74.06;100129.59;108741;1257;59902;-88
2023/08/03 07:28:01;;;;;;;11.00;7.70;;;;;;;33.24;74.04;100125.04;108871;1255;66197;-87
2023/08/03 07:30:49;;;;;;;10.80;7.50;;;;;;;33.39;72.77;100126.42;108764;1256;59334;-88
2023/08/03 07:33:38;;;;;;;10.00;7.80;;;;;;;33.57;73.08;100126.46;108745;1255;59703;-89
2023/08/03 07:36:46;;;;;;;9.30;7.30;;;;;;;33.89;70.40;100125.36;108743;1255;66281;-90
2023/08/03 07:39:39;;;;;;;9.80;7.10;;;;;;;34.23;70.68;100130.05;108759;1255;61561;-89
2023/08/03 07:42:37;;;;;;;9.60;7.20;;;;;;;34.57;68.01;100129.79;108825;1255;65655;-90
2023/08/03 07:45:28;;;;;;;9.80;7.60;;;;;;;34.65;63.92;100128.10;108747;1256;59257;-89
2023/08/03 07:48:28;;;;;;;9.30;6.80;;;;;;;34.57;61.47;100130.77;108807;1255;59988;-90
2023/08/03 07:51:20;;;;;;;8.20;7.20;;;;;;;34.71;61.27;100129.05;108797;1256;66207;-89
2023/08/03 07:54:15;;;;;;;10.00;7.20;;;;;;;35.02;61.23;100131.77;108760;1255;61534;-89
2023/08/03 07:57:04;;;;;;;8.80;7.10;;;;;;;35.11;61.26;100137.84;108715;1257;63681;-89
2023/08/03 07:59:53;;;;;;;8.80;7.10;;;;;;;35.29;59.81;100139.11;108789;1255;59622;-91
2023/08/03 08:02:45;;;;;;;;;;;;;;;35.45;56.57;100144.81;108705;1257;59580;-90
2023/08/03 08:05:36;;;;;;;9.10;7.40;;;;;;;35.16;54.70;100148.14;108776;1255;68442;-90
2023/08/03 08:08:25;;;;;;;9.10;7.40;;;;;;;34.81;55.52;100143.56;108788;1255;61646;-90
2023/08/03 08:11:15;;;;;;;8.60;6.80;;;;;;;34.61;56.04;100135.20;108808;1255;64917;-90
2023/08/03 08:14:03;;;;;;;9.10;7.30;;;;;;;34.57;55.99;100142.19;108810;1255;59891;-90
2023/08/03 08:16:52;;;;;;;11.20;7.50;;;;;;;34.60;57.43;100141.07;108846;1256;59179;-89
2023/08/03 08:20:04;;;;;;;9.90;6.80;;;;;;;34.73;58.88;100141.15;108870;1255;67947;-91
2023/08/03 08:22:53;;;;;;;10.90;6.70;;;;;;;34.98;56.91;100143.20;108833;1255;63333;-89
2023/08/03 08:25:41;;;;;;;8.60;6.80;;;;;;;35.01;55.33;100141.21;108724;1255;65746;-90
2023/08/03 08:28:30;;;;;;;9.40;7.20;;;;;;;35.14;57.26;100145.03;108809;1255;60931;-89
2023/08/03 08:31:28;;;;;;;8.80;7.00;;;;;;;35.41;56.40;100147.15;108745;1255;59554;-90
2023/08/03 08:34:36;;;;;;;11.50;7.20;;;;;;;35.68;54.06;100151.02;108900;1257;76790;-91
2023/08/03 08:37:24;;;;;;;13.20;6.90;;;;;;;35.82;51.25;100148.83;108910;1255;60567;-90
2023/08/03 08:40:13;;;;;;;8.20;6.50;;;;;;;35.69;50.20;100146.20;108725;1255;65592;-89
2023/08/03 08:43:02;;;;;;;8.40;6.30;;;;;;;35.61;52.28;100148.50;108731;1256;61170;-90
2023/08/03 08:45:52;;;;;;;8.80;7.00;;;;;;;35.61;55.85;100146.16;108742;1255;59700;-90
2023/08/03 08:48:41;;;;;;;10.40;7.20;;;;;;;35.65;56.02;100145.79;108753;1257;64804;-90
2023/08/03 08:51:32;;;;;;;7.70;6.20;;;;;;;35.82;55.64;100144.34;108826;1255;62103;-90
2023/08/03 08:54:32;;;;;;;8.50;6.10;;;;;;;35.99;55.12;100146.09;108668;1258;64043;-91
2023/08/03 08:57:23;;;;;;;8.20;6.20;;;;;;;36.14;55.15;100145.33;108758;1257;59320;-90
2023/08/03 09:00:15;;;;;;;10.80;6.60;;;;;;;36.31;53.08;100144.67;108704;1255;59357;-88
2023/08/03 09:03:03;;;;;;;8.70;6.20;;;;;;;36.37;50.18;100147.53;108831;1257;66305;-89
2023/08/03 09:05:58;;;;;;;8.10;6.10;;;;;;;36.24;49.91;100149.00;108749;1255;69628;-90
2023/08/03 09:08:52;;;;;;;7.60;6.00;;;;;;;36.23;48.96;100151.40;108791;1255;66090;-90
2023/08/03 09:11:41;;;;;;;7.50;6.20;;;;;;;36.18;48.18;100154.37;108783;1256;59898;-90
2023/08/03 09:14:31;;;;;;;7.00;5.60;;;;;;;36.26;46.58;100157.38;108737;1255;59438;-91
2023/08/03 09:17:22;;;;;;;11.20;5.60;;;;;;;36.41;46.57;100157.89;108864;1255;67110;-89
2023/08/03 09:20:32;;;;;;;7.90;6.10;;;;;;;36.55;45.65;100161.48;108843;1256;59777;-90
2023/08/03 10:45:20;;;;;;;5.40;4.30;;;;;;;37.71;41.39;100168.94;108799;1255;59895;-89
2023/08/03 10:48:29;;;;;;;5.00;3.70;;;;;;;37.69;40.92;100168.77;108869;1255;59184;-89
2023/08/03 10:51:22;;;;;;;5.80;4.10;;;;;;;37.54;39.98;100164.04;108781;1259;65747;-88
2023/08/03 10:54:11;;;;;;;4.10;3.60;;;;;;;37.38;39.98;100160.45;108897;1255;61899;-90
2023/08/03 10:57:04;;;;;;;4.50;3.80;;;;;;;37.27;40.26;100156.84;108768;1255;65590;-88
2023/08/03 10:59:58;;;;;;;4.90;3.70;;;;;;;37.39;41.61;100150.24;108840;1255;59553;-87
2023/08/03 11:02:46;;;;;;;4.60;3.60;;;;;;;37.75;40.81;100144.47;108821;1255;59748;-88
2023/08/03 11:05:36;;;;;;;5.60;3.50;;;;;;;38.05;38.50;100142.08;108811;1255;66564;-88
2023/08/03 11:08:24;;;;;;;4.00;3.40;;;;;;;38.19;37.73;100141.46;108892;1255;60941;-87
2023/08/03 11:11:13;;;;;;;6.70;3.80;;;;;;;38.31;38.99;100143.85;108722;1256;63837;-90
2023/08/03 11:14:03;;;;;;;5.00;3.90;;;;;;;38.29;39.14;100144.52;108790;1255;59122;-88
2023/08/03 11:16:51;;;;;;;3.90;3.50;;;;;;;38.22;39.76;100142.58;108809;1255;59460;-89
2023/08/03 11:19:40;;;;;;;4.60;3.60;;;;;;;38.22;39.98;100143.30;108830;1257;64500;-88
2023/08/03 11:22:28;;;;;;;4.30;3.90;;;;;;;38.36;39.26;100141.39;108834;1256;62093;-89
2023/08/03 11:25:24;;;;;;;4.00;3.40;;;;;;;38.44;38.11;100138.81;108816;1256;63382;-90
2023/08/03 11:28:18;;;;;;;4.80;3.80;;;;;;;38.32;37.86;100140.20;108810;1255;59201;-88
2023/08/03 11:31:20;;;;;;;4.40;3.50;;;;;;;38.25;39.20;100138.89;108746;1255;59316;-89
2023/08/03 11:34:10;;;;;;;4.90;3.60;;;;;;;38.35;38.65;100133.38;108851;1255;68883;-87
2023/08/03 11:36:59;;;;;;;4.10;3.70;;;;;;;38.53;38.41;100137.89;108765;1255;60693;-87
2023/08/03 11:39:47;;;;;;;4.60;3.50;;;;;;;38.66;37.73;100138.11;108776;1255;64690;-88
2023/08/03 11:42:38;;;;;;;4.80;3.40;;;;;;;38.82;36.92;100136.31;108871;1256;61120;-88
2023/08/03 11:45:28;;;;;;;5.20;3.00;;;;;;;39.29;37.04;100131.48;108800;1255;59436;-89
2023/08/03 11:48:19;;;;;;;4.10;3.40;;;;;;;39.62;36.08;100134.69;108713;1255;65733;-87
2023/08/03 11:51:08;;;;;;;3.90;3.00;;;;;;;39.64;33.71;100131.98;108754;1257;61923;-89
2023/08/03 11:54:00;;;;;;;4.50;3.20;;;;;;;39.31;33.50;100128.08;108805;1255;74523;-90
2023/08/03 11:56:48;;;;;;;3.60;3.10;;;;;;;39.30;35.00;100128.40;108805;1255;59448;-89
2023/08/03 11:59:37;;;;;;;4.20;3.00;;;;;;;39.72;34.36;100129.08;108706;1255;62332;-90
2023/08/03 12:02:44;;;;;;;2.80;2.50;;;;;;;39.93;33.58;100128.78;108832;1255;67897;-88
2023/08/03 12:05:49;;;;;;;5.30;2.70;;;;;;;39.87;33.59;100131.84;108880;1255;61118;-90
2023/08/03 12:08:52;;;;;;;3.10;2.70;;;;;;;39.93;33.66;100127.41;108734;1256;65875;-90
2023/08/03 12:11:41;;;;;;;2.70;2.50;;;;;;;40.33;33.52;100127.27;108754;1256;59329;-90
2023/08/03 12:14:29;;;;;;;2.90;2.60;;;;;;;40.80;32.25;100130.04;108694;1255;59209;-87
2023/08/03 12:17:19;;;;;;;3.60;2.50;;;;;;;40.97;30.12;100126.92;108658;1255;66387;-89
2023/08/03 12:20:11;;;;;;;2.90;2.10;;;;;;;40.88;30.12;100129.27;108742;1255;59653;-89
2023/08/03 12:23:11;;;;;;;2.60;2.30;;;;;;;40.87;30.89;100130.92;108771;1255;65878;-89
2023/08/03 12:25:59;;;;;;;2.60;2.10;;;;;;;40.94;30.17;100123.38;108864;1256;59033;-88
2023/08/03 12:28:48;;;;;;;2.70;2.20;;;;;;;40.87;29.77;100122.45;108866;1255;59605;-88
2023/08/03 12:31:47;;;;;;;3.10;2.00;;;;;;;40.63;29.50;100128.52;108773;1257;64544;-88
2023/08/03 12:34:38;;;;;;;2.40;2.10;;;;;;;40.34;30.09;100126.84;108632;1255;62272;-89
2023/08/03 12:37:27;;;;;;;3.00;2.40;;;;;;;40.26;30.48;100125.28;108826;1256;62935;-88
2023/08/03 12:40:20;;;;;;;5.00;2.10;;;;;;;40.22;30.50;100125.83;108801;1256;61160;-88
2023/08/03 12:43:09;;;;;;;2.50;2.10;;;;;;;40.28;30.49;100121.52;108849;1255;59100;-89
2023/08/03 12:46:02;;;;;;;3.00;2.50;;;;;;;40.21;30.31;100120.45;108811;1255;66440;-90
2023/08/03 12:49:05;;;;;;;3.90;2.80;;;;;;;40.42;30.51;100121.02;108768;1255;59803;-89
2023/08/03 12:51:58;;;;;;;4.20;2.10;;;;;;;40.69;31.00;100123.82;108751;1256;73376;-88
2023/08/03 12:54:46;;;;;;;5.20;2.40;;;;;;;40.99;30.38;100125.48;108780;1258;60556;-89
2023/08/03 12:57:35;;;;;;;2.50;2.30;;;;;;;41.50;29.45;100127.02;108750;1255;59224;-87
2023/08/03 13:00:27;;;;;;;2.70;2.20;;;;;;;41.71;27.92;100126.09;108897;1255;68397;-87
2023/08/03 13:03:16;;;;;;;2.70;2.20;;;;;;;41.71;27.64;100125.10;108887;1255;60185;-87
2023/08/03 13:06:05;;;;;;;2.50;2.10;;;;;;;41.55;27.52;100130.77;108735;1255;63913;-88
2023/08/03 13:08:54;;;;;;;2.40;2.20;;;;;;;41.51;27.77;100135.48;108770;1255;59101;-88
2023/08/03 13:11:42;;;;;;;2.60;2.30;;;;;;;41.94;27.38;100142.11;108785;1255;60544;-87
2023/08/03 13:14:31;;;;;;;2.40;2.10;;;;;;;41.88;27.02;100140.02;108785;1255;64969;-88
2023/08/03 13:17:19;;;;;;;4.40;2.30;;;;;;;41.70;27.68;100137.45;108818;1257;61940;-89
2023/08/03 13:20:08;;;;;;;2.30;2.10;;;;;;;41.84;28.04;100139.11;108803;1256;65776;-90
2023/08/03 13:22:58;;;;;;;2.40;2.00;;;;;;;42.44;28.17;100141.08;108792;1256;59668;-89
2023/08/03 13:25:47;;;;;;;5.70;2.00;;;;;;;42.70;27.20;100142.30;108769;1255;59357;-91
2023/08/03 13:28:36;;;;;;;3.40;2.10;;;;;;;42.64;26.50;100140.55;108715;1256;76712;-90
2023/08/03 13:31:24;;;;;;;3.00;2.00;;;;;;;42.73;26.30;100139.67;108921;1255;59896;-88
2023/08/03 13:34:13;;;;;;;2.80;2.00;;;;;;;42.89;26.01;100140.85;108853;1255;195266;-88
2023/08/03 13:37:01;;;;;;;2.10;1.90;;;;;;;43.08;25.83;100145.84;108975;1257;58966;-91
2023/08/03 13:39:49;;;;;;;2.10;1.90;;;;;;;43.34;26.04;100145.25;108995;1255;59206;-90
2023/08/03 13:42:38;;;;;;;2.60;1.80;;;;;;;43.95;25.47;100145.89;108930;1256;65833;-91
2023/08/03 13:45:26;;;;;;;2.00;1.80;;;;;;;44.44;25.03;100145.84;108845;1255;60649;-88
2023/08/03 13:48:14;;;;;;;4.00;2.00;;;;;;;44.63;23.93;100148.20;108903;1255;63746;-88
2023/08/03 13:51:03;;;;;;;5.50;1.80;;;;;;;44.81;23.55;100148.41;108811;1257;59537;-91
2023/08/03 13:53:51;;;;;;;1.60;1.50;;;;;;;45.39;23.34;100149.48;108880;1256;59309;-91
2023/08/03 13:56:42;;;;;;;1.70;1.50;;;;;;;45.79;22.91;100150.21;108787;1255;68214;-90
2023/08/03 13:59:31;;;;;;;1.90;1.70;;;;;;;45.86;21.80;100154.42;108926;1256;60018;-91
2023/08/03 14:02:19;;;;;;;3.90;1.70;;;;;;;45.50;21.41;100155.58;108837;1255;66409;-89
2023/08/03 14:05:27;;;;;;;2.10;1.50;;;;;;;44.49;22.76;100150.42;108833;1257;59154;-89
2023/08/03 14:08:19;;;;;;;1.80;1.60;;;;;;;44.32;23.30;100150.33;108860;1255;59943;-88
2023/08/03 14:11:07;;;;;;;1.90;1.50;;;;;;;44.33;22.87;100151.63;108923;1256;65742;-91
2023/08/03 14:14:01;;;;;;;3.40;1.80;;;;;;;44.02;22.92;100152.00;108774;1257;62221;-90
2023/08/03 14:16:50;;;;;;;1.80;1.50;;;;;;;43.87;23.04;100146.63;108898;1256;65213;-89
2023/08/03 14:19:42;;;;;;;2.00;1.70;;;;;;;43.88;23.04;100150.02;108759;1255;59196;-91
2023/08/03 14:22:31;;;;;;;1.40;1.30;;;;;;;43.90;23.03;100152.44;108765;1257;59237;-90
2023/08/03 14:25:19;;;;;;;1.50;1.40;;;;;;;43.89;22.15;100148.83;108679;1255;67165;-91